createdAt,value
2018-12-31T00:01:27.118Z,3.30
2018-12-31T00:04:09.137Z,3.10
2018-12-31T00:06:51.138Z,3.10
2018-12-31T00:09:33.072Z,3.10
2018-12-31T00:12:14.999Z,3.10
2018-12-31T00:14:56.349Z,3.10
2018-12-31T00:17:38.178Z,3.10
2018-12-31T00:20:20.122Z,3.20
2018-12-31T00:23:02.341Z,3.20
2018-12-31T00:25:44.706Z,3.10
2018-12-31T00:28:26.696Z,3.20
2018-12-31T00:31:08.678Z,3.10
2018-12-31T00:33:50.668Z,3.00
2018-12-31T00:36:32.518Z,2.90
2018-12-31T00:39:14.744Z,2.80
2018-12-31T00:41:56.719Z,2.80
2018-12-31T00:44:38.083Z,2.80
2018-12-31T00:47:19.432Z,2.80
2018-12-31T00:50:01.756Z,2.80
2018-12-31T00:52:43.667Z,2.70
2018-12-31T00:55:25.061Z,2.70
2018-12-31T00:58:06.909Z,2.70
2018-12-31T01:00:49.145Z,2.70
2018-12-31T01:03:30.729Z,2.60
2018-12-31T01:06:12.732Z,2.80
2018-12-31T01:08:54.708Z,2.70
2018-12-31T01:11:36.868Z,2.60
2018-12-31T01:14:18.486Z,2.60
2018-12-31T01:17:00.051Z,2.50
2018-12-31T01:19:41.892Z,2.60
2018-12-31T01:22:23.336Z,2.60
2018-12-31T01:25:04.856Z,2.60
2018-12-31T01:27:48.369Z,2.50
2018-12-31T01:30:30.308Z,2.60
2018-12-31T01:33:11.784Z,2.60
2018-12-31T01:35:54.028Z,2.60
2018-12-31T01:38:35.650Z,2.60
2018-12-31T01:41:17.628Z,2.50
2018-12-31T01:43:59.556Z,2.50
2018-12-31T01:46:41.301Z,2.50
2018-12-31T01:49:23.247Z,2.50
2018-12-31T01:52:05.079Z,2.50
2018-12-31T01:54:47.025Z,2.50
2018-12-31T01:57:28.985Z,2.50
2018-12-31T02:00:11.173Z,2.50
2018-12-31T02:02:52.829Z,2.50
2018-12-31T02:05:34.425Z,2.60
2018-12-31T02:08:16.685Z,2.60
2018-12-31T02:10:58.891Z,2.70
2018-12-31T02:13:40.792Z,2.70
2018-12-31T02:16:22.490Z,2.70
2018-12-31T02:19:03.811Z,2.70
2018-12-31T02:21:45.834Z,2.70
2018-12-31T02:24:27.676Z,2.70
2018-12-31T02:27:09.946Z,2.70
2018-12-31T02:29:51.694Z,2.80
2018-12-31T02:32:33.638Z,2.80
2018-12-31T02:35:15.610Z,2.80
2018-12-31T02:37:57.613Z,2.80
2018-12-31T02:40:38.973Z,2.80
2018-12-31T02:43:21.183Z,2.80
2018-12-31T02:46:02.668Z,2.70
2018-12-31T02:48:44.568Z,2.80
2018-12-31T02:51:25.893Z,2.80
2018-12-31T02:54:07.221Z,2.70
2018-12-31T02:56:49.130Z,2.80
2018-12-31T02:59:31.020Z,2.80
2018-12-31T03:02:12.292Z,2.70
2018-12-31T03:04:54.103Z,2.70
2018-12-31T03:07:35.394Z,2.70
2018-12-31T03:10:17.067Z,2.70
2018-12-31T03:12:58.749Z,2.80
2018-12-31T03:15:40.793Z,2.70
2018-12-31T03:18:22.885Z,2.80
2018-12-31T03:21:04.941Z,2.80
2018-12-31T03:23:46.797Z,2.80
2018-12-31T03:26:28.657Z,2.90
2018-12-31T03:29:10.572Z,2.90
2018-12-31T03:31:52.490Z,2.90
2018-12-31T03:34:32.666Z,2.80
2018-12-31T03:37:23.999Z,2.80
2018-12-31T03:40:05.375Z,2.90
2018-12-31T03:42:47.592Z,2.90
2018-12-31T03:45:28.981Z,2.80
2018-12-31T03:48:11.077Z,2.80
2018-12-31T03:50:53.331Z,2.90
2018-12-31T03:53:35.540Z,2.90
2018-12-31T03:56:17.609Z,3.00
2018-12-31T03:58:59.667Z,2.90
2018-12-31T04:01:41.646Z,3.00
2018-12-31T04:04:23.102Z,2.90
2018-12-31T04:07:05.159Z,3.00
2018-12-31T04:09:46.491Z,2.80
2018-12-31T04:12:28.206Z,2.90
2018-12-31T04:15:10.190Z,2.90
2018-12-31T04:17:52.427Z,2.80
2018-12-31T04:20:34.480Z,2.90
2018-12-31T04:23:16.628Z,2.90
2018-12-31T04:25:58.454Z,2.80
2018-12-31T04:28:40.520Z,2.90
2018-12-31T04:31:22.535Z,3.00
2018-12-31T04:34:03.842Z,3.00
2018-12-31T04:36:45.531Z,3.10
2018-12-31T04:39:26.873Z,3.00
2018-12-31T04:42:08.822Z,3.00
2018-12-31T04:44:50.410Z,3.00
2018-12-31T04:47:32.380Z,3.00
2018-12-31T04:50:14.452Z,3.00
2018-12-31T04:52:56.669Z,2.90
2018-12-31T04:55:44.391Z,2.90
2018-12-31T04:58:23.286Z,3.00
2018-12-31T05:01:05.081Z,2.90
2018-12-31T05:03:47.069Z,2.80
2018-12-31T05:06:28.232Z,2.80
2018-12-31T05:09:10.451Z,2.90
2018-12-31T05:11:52.109Z,3.00
2018-12-31T05:14:34.099Z,2.90
2018-12-31T05:17:15.850Z,2.90
2018-12-31T05:19:57.473Z,2.90
2018-12-31T05:22:39.131Z,3.00
2018-12-31T05:25:21.305Z,3.00
2018-12-31T05:28:03.429Z,3.00
2018-12-31T05:30:45.225Z,3.00
2018-12-31T05:33:26.685Z,3.00
2018-12-31T05:36:08.774Z,2.90
2018-12-31T05:38:50.851Z,3.00
2018-12-31T05:41:32.593Z,3.00
2018-12-31T05:44:14.353Z,3.00
2018-12-31T05:46:57.909Z,2.90
2018-12-31T05:49:39.804Z,2.90
2018-12-31T05:52:21.999Z,2.80
2018-12-31T05:55:03.569Z,2.90
2018-12-31T05:57:44.985Z,2.90
2018-12-31T06:00:26.745Z,2.90
2018-12-31T06:03:08.735Z,3.00
2018-12-31T06:05:50.017Z,3.00
2018-12-31T06:08:31.701Z,2.90
2018-12-31T06:11:13.994Z,2.80
2018-12-31T06:13:55.913Z,2.90
2018-12-31T06:16:37.375Z,2.90
2018-12-31T06:19:19.343Z,2.90
2018-12-31T06:22:01.097Z,2.90
2018-12-31T06:24:43.199Z,2.90
2018-12-31T06:27:24.784Z,2.90
2018-12-31T06:30:06.864Z,2.90
2018-12-31T06:32:48.865Z,2.90
2018-12-31T06:35:30.777Z,2.90
2018-12-31T06:38:12.890Z,2.80
2018-12-31T06:40:54.885Z,2.70
2018-12-31T06:43:37.061Z,2.70
2018-12-31T06:46:19.031Z,2.80
2018-12-31T06:49:00.634Z,2.80
2018-12-31T06:51:42.146Z,2.80
2018-12-31T06:54:23.488Z,2.80
2018-12-31T06:57:05.206Z,2.80
2018-12-31T06:59:47.178Z,2.80
2018-12-31T07:02:28.932Z,2.90
2018-12-31T07:05:10.610Z,2.90
2018-12-31T07:07:52.541Z,2.90
2018-12-31T07:10:34.112Z,2.90
2018-12-31T07:13:16.151Z,2.90
2018-12-31T07:15:58.349Z,2.80
2018-12-31T07:18:40.271Z,2.90
2018-12-31T07:21:22.146Z,2.90
2018-12-31T07:24:03.629Z,3.00
2018-12-31T07:26:45.865Z,3.00
2018-12-31T07:29:28.051Z,3.10
2018-12-31T07:32:10.112Z,2.90
2018-12-31T07:34:52.304Z,2.90
2018-12-31T07:37:34.288Z,2.90
2018-12-31T07:40:15.809Z,2.90
2018-12-31T07:42:57.205Z,2.90
2018-12-31T07:45:39.269Z,2.90
2018-12-31T07:48:21.321Z,2.80
2018-12-31T07:51:05.458Z,2.90
2018-12-31T07:53:47.184Z,2.80
2018-12-31T07:56:29.209Z,2.80
2018-12-31T07:59:10.583Z,2.70
2018-12-31T08:01:54.019Z,2.70
2018-12-31T08:04:35.634Z,2.80
2018-12-31T08:07:17.516Z,2.90
2018-12-31T08:09:59.630Z,3.00
2018-12-31T08:12:41.503Z,2.90
2018-12-31T08:15:22.833Z,3.00
2018-12-31T08:18:05.104Z,3.00
2018-12-31T08:20:46.616Z,3.10
2018-12-31T08:23:28.600Z,3.00
2018-12-31T08:26:10.842Z,3.00
2018-12-31T08:28:52.752Z,3.10
2018-12-31T08:31:34.587Z,3.10
2018-12-31T08:34:16.107Z,3.20
2018-12-31T08:36:58.296Z,3.10
2018-12-31T08:39:40.063Z,3.20
2018-12-31T08:42:22.343Z,3.20
2018-12-31T08:45:04.287Z,3.10
2018-12-31T08:47:46.366Z,3.10
2018-12-31T08:50:28.148Z,3.10
2018-12-31T08:53:09.736Z,3.10
2018-12-31T08:55:51.442Z,3.20
2018-12-31T08:58:33.161Z,3.20
2018-12-31T09:01:15.185Z,3.20
2018-12-31T09:03:57.122Z,3.20
2018-12-31T09:06:39.256Z,3.10
2018-12-31T09:09:21.261Z,3.10
2018-12-31T09:12:03.437Z,3.10
2018-12-31T09:14:46.384Z,3.10
2018-12-31T09:17:28.192Z,3.10
2018-12-31T09:20:10.114Z,3.10
2018-12-31T09:22:52.277Z,3.20
2018-12-31T09:25:34.228Z,3.20
2018-12-31T09:28:16.506Z,3.20
2018-12-31T09:30:57.719Z,3.20
2018-12-31T09:33:39.543Z,3.20
2018-12-31T09:36:21.019Z,3.30
2018-12-31T09:39:04.515Z,3.30
2018-12-31T09:41:46.378Z,3.30
2018-12-31T09:44:28.146Z,3.20
2018-12-31T09:47:09.579Z,3.30
2018-12-31T09:49:51.605Z,3.30
2018-12-31T09:52:33.509Z,3.30
2018-12-31T09:55:15.578Z,3.20
2018-12-31T09:57:57.663Z,3.20
2018-12-31T10:00:39.433Z,3.10
2018-12-31T10:03:21.383Z,3.20
2018-12-31T10:06:04.956Z,3.30
2018-12-31T10:08:49.306Z,3.40
2018-12-31T10:11:29.940Z,3.40
2018-12-31T10:14:11.204Z,3.40
2018-12-31T10:16:52.397Z,3.30
2018-12-31T10:19:34.120Z,3.30
2018-12-31T10:22:15.505Z,3.40
2018-12-31T10:24:57.735Z,3.30
2018-12-31T10:27:27.785Z,3.30
2018-12-31T10:29:57.953Z,3.30
2018-12-31T10:32:27.931Z,3.20
2018-12-31T10:34:58.019Z,3.20
2018-12-31T10:37:28.138Z,3.10
2018-12-31T10:39:58.232Z,3.10
2018-12-31T10:42:28.302Z,3.10
2018-12-31T10:44:58.373Z,3.10
2018-12-31T10:47:28.412Z,3.10
2018-12-31T10:49:58.603Z,3.00
2018-12-31T10:52:28.652Z,3.00
2018-12-31T10:54:58.718Z,2.90
2018-12-31T10:57:28.718Z,2.90
2018-12-31T10:59:58.774Z,2.90
2018-12-31T11:02:28.870Z,2.90
2018-12-31T11:04:58.917Z,2.90
2018-12-31T11:07:29.012Z,2.90
2018-12-31T11:09:59.048Z,2.90
2018-12-31T11:12:29.041Z,2.80
2018-12-31T11:14:59.051Z,2.80
2018-12-31T11:17:29.099Z,2.80
2018-12-31T11:19:59.160Z,2.70
2018-12-31T11:22:29.220Z,2.80
2018-12-31T11:24:59.247Z,2.70
2018-12-31T11:27:29.366Z,2.70
2018-12-31T11:29:59.462Z,2.70
2018-12-31T11:32:29.446Z,2.70
2018-12-31T11:34:59.491Z,2.70
2018-12-31T11:37:34.511Z,2.70
2018-12-31T11:40:01.187Z,2.70
2018-12-31T11:42:31.243Z,2.70
2018-12-31T11:45:01.355Z,2.70
2018-12-31T11:47:31.467Z,2.80
2018-12-31T11:50:01.465Z,2.80
2018-12-31T11:52:31.477Z,2.80
2018-12-31T11:55:03.463Z,2.80
2018-12-31T11:57:33.344Z,2.80
2018-12-31T12:00:03.494Z,2.90
2018-12-31T12:02:33.556Z,2.90
2018-12-31T12:05:03.643Z,2.90
2018-12-31T12:07:33.717Z,2.90
2018-12-31T12:10:03.781Z,2.90
2018-12-31T12:12:33.766Z,2.90
2018-12-31T12:15:04.029Z,2.90
2018-12-31T12:17:34.115Z,2.90
2018-12-31T12:20:04.293Z,2.90
2018-12-31T12:22:34.665Z,2.90
2018-12-31T12:25:04.818Z,2.90
2018-12-31T12:27:34.933Z,2.90
2018-12-31T12:30:05.870Z,2.90
2018-12-31T12:32:36.081Z,2.90
2018-12-31T12:35:06.424Z,3.00
2018-12-31T12:37:36.654Z,2.90
2018-12-31T12:40:07.134Z,2.90
2018-12-31T12:42:37.321Z,2.90
2018-12-31T12:45:07.834Z,2.90
2018-12-31T12:47:40.091Z,3.00
2018-12-31T12:50:10.285Z,3.00
2018-12-31T12:52:40.489Z,2.90
2018-12-31T12:55:10.689Z,3.00
2018-12-31T12:57:42.174Z,3.00
2018-12-31T13:00:12.360Z,3.10
2018-12-31T13:02:42.456Z,3.10
2018-12-31T13:05:12.602Z,3.10
2018-12-31T13:07:42.991Z,3.10
2018-12-31T13:10:13.114Z,3.10
2018-12-31T13:12:43.230Z,3.10
2018-12-31T13:15:14.207Z,3.20
2018-12-31T13:17:44.390Z,3.10
2018-12-31T13:20:14.572Z,3.20
2018-12-31T13:22:44.673Z,3.20
2018-12-31T13:25:14.941Z,3.20
2018-12-31T13:27:45.045Z,3.20
2018-12-31T13:30:15.262Z,3.20
2018-12-31T13:32:45.452Z,3.20
2018-12-31T13:35:15.648Z,3.10
2018-12-31T13:37:45.860Z,3.20
2018-12-31T13:40:16.250Z,3.10
2018-12-31T13:42:46.666Z,3.10
2018-12-31T13:45:16.880Z,3.10
2018-12-31T13:47:47.042Z,3.00
2018-12-31T13:50:18.048Z,2.90
2018-12-31T13:52:48.548Z,3.00
2018-12-31T13:55:19.020Z,2.90
2018-12-31T13:57:49.226Z,2.80
2018-12-31T14:00:19.336Z,2.90
2018-12-31T14:02:49.451Z,2.90
2018-12-31T14:05:19.563Z,2.90
2018-12-31T14:07:49.685Z,3.00
2018-12-31T14:10:19.853Z,3.00
2018-12-31T14:12:49.983Z,2.90
2018-12-31T14:15:20.836Z,3.00
2018-12-31T14:17:51.098Z,3.00
2018-12-31T14:20:21.232Z,2.90
2018-12-31T14:22:51.425Z,2.90
2018-12-31T14:25:21.649Z,2.90
2018-12-31T14:27:51.817Z,2.90
2018-12-31T14:30:21.979Z,2.90
2018-12-31T14:32:52.178Z,3.00
2018-12-31T14:35:22.463Z,2.90
2018-12-31T14:37:53.900Z,2.90
2018-12-31T14:40:24.348Z,2.90
2018-12-31T14:42:54.536Z,2.90
2018-12-31T14:45:24.769Z,3.00
2018-12-31T14:47:55.339Z,3.00
2018-12-31T14:50:26.557Z,3.00
2018-12-31T14:52:57.768Z,3.00
2018-12-31T14:55:28.323Z,3.00
2018-12-31T14:57:58.474Z,3.00
2018-12-31T15:00:28.822Z,3.00
2018-12-31T15:02:58.957Z,3.00
2018-12-31T15:05:29.159Z,2.90
2018-12-31T15:08:09.931Z,2.90
2018-12-31T15:14:00.548Z,3.00
2018-12-31T15:16:42.621Z,3.00
2018-12-31T15:19:24.790Z,3.00
2018-12-31T15:22:07.354Z,3.00
2018-12-31T15:24:49.055Z,3.00
2018-12-31T15:27:31.037Z,2.90
2018-12-31T15:30:13.072Z,3.00
2018-12-31T15:32:55.379Z,3.00
2018-12-31T15:35:37.659Z,3.10
2018-12-31T15:38:19.544Z,3.00
2018-12-31T15:41:01.697Z,3.00
2018-12-31T15:43:44.035Z,2.90
2018-12-31T15:46:26.417Z,2.90
2018-12-31T15:49:07.802Z,2.90
2018-12-31T15:51:49.903Z,2.90
2018-12-31T15:54:32.174Z,3.00
2018-12-31T15:57:14.148Z,3.00
2018-12-31T15:59:56.095Z,3.00
2018-12-31T16:02:38.027Z,3.00
2018-12-31T16:05:19.734Z,3.10
2018-12-31T16:08:02.159Z,3.20
2018-12-31T16:10:43.904Z,3.20
2018-12-31T16:13:26.164Z,3.20
2018-12-31T16:16:07.777Z,3.10
2018-12-31T16:18:50.060Z,3.00
2018-12-31T16:21:32.032Z,3.10
2018-12-31T16:24:13.995Z,3.10
2018-12-31T16:26:56.132Z,3.30
2018-12-31T16:29:38.165Z,3.30
2018-12-31T16:32:20.358Z,3.20
2018-12-31T16:35:01.987Z,3.20
2018-12-31T16:37:43.866Z,3.20
2018-12-31T16:40:25.992Z,3.20
2018-12-31T16:43:09.224Z,3.30
2018-12-31T16:45:51.214Z,3.30
2018-12-31T16:48:33.661Z,3.40
2018-12-31T16:51:15.648Z,3.40
2018-12-31T16:53:57.079Z,3.40
2018-12-31T16:56:38.453Z,3.50
2018-12-31T16:59:20.632Z,3.60
2018-12-31T17:02:02.487Z,3.60
2018-12-31T17:04:44.574Z,3.60
2018-12-31T17:07:28.433Z,3.50
2018-12-31T17:10:10.302Z,3.60
2018-12-31T17:12:52.332Z,3.60
2018-12-31T17:15:34.319Z,3.70
2018-12-31T17:18:16.059Z,3.70
2018-12-31T17:20:57.911Z,3.70
2018-12-31T17:23:39.905Z,3.80
2018-12-31T17:26:21.877Z,3.80
2018-12-31T17:29:03.649Z,3.80
2018-12-31T17:31:45.743Z,3.70
2018-12-31T17:34:27.961Z,3.70
2018-12-31T17:37:10.059Z,3.70
2018-12-31T17:39:52.309Z,3.80
2018-12-31T17:42:34.279Z,3.80
2018-12-31T17:45:22.958Z,3.80
2018-12-31T17:47:59.991Z,3.80
2018-12-31T17:50:41.862Z,3.80
2018-12-31T17:53:23.294Z,3.80
2018-12-31T17:56:05.099Z,3.80
2018-12-31T17:58:47.402Z,3.90
2018-12-31T18:01:30.165Z,3.90
2018-12-31T18:06:53.002Z,3.80
2018-12-31T18:09:34.363Z,3.80
2018-12-31T18:12:16.019Z,3.80
2018-12-31T18:14:58.259Z,3.80
2018-12-31T18:17:38.548Z,3.80
2018-12-31T18:20:27.637Z,3.90
2018-12-31T18:23:09.577Z,4.00
2018-12-31T18:25:51.611Z,3.90
2018-12-31T18:28:35.119Z,4.00
2018-12-31T18:31:16.825Z,4.00
2018-12-31T18:33:58.589Z,4.10
2018-12-31T18:36:39.951Z,4.00
2018-12-31T18:39:22.037Z,4.10
2018-12-31T18:42:04.069Z,4.10
2018-12-31T18:44:46.047Z,4.10
2018-12-31T18:47:28.325Z,4.00
2018-12-31T18:50:10.467Z,4.00
2018-12-31T18:52:52.137Z,4.00
2018-12-31T18:55:34.199Z,4.10
2018-12-31T18:58:16.171Z,4.20
2018-12-31T19:00:57.582Z,4.20
2018-12-31T19:03:39.939Z,4.20
2018-12-31T19:06:21.786Z,4.20
2018-12-31T19:09:04.649Z,4.10
2018-12-31T19:11:46.079Z,4.20
2018-12-31T19:14:27.456Z,4.20
2018-12-31T19:17:09.006Z,4.10
2018-12-31T19:19:51.151Z,4.20
2018-12-31T19:22:32.888Z,4.10
2018-12-31T19:25:15.353Z,4.10
2018-12-31T19:27:57.663Z,4.10
2018-12-31T19:30:39.910Z,4.10
2018-12-31T19:33:22.116Z,4.10
2018-12-31T19:36:04.162Z,4.20
2018-12-31T19:38:46.648Z,4.20
2018-12-31T19:41:28.810Z,4.20
2018-12-31T19:44:11.049Z,4.20
2018-12-31T19:46:53.282Z,4.20
2018-12-31T19:49:35.477Z,4.20
2018-12-31T19:52:17.352Z,4.20
2018-12-31T19:54:59.202Z,4.20
2018-12-31T19:57:41.327Z,4.20
2018-12-31T20:00:23.474Z,4.20
2018-12-31T20:03:05.251Z,4.20
2018-12-31T20:05:47.200Z,4.20
2018-12-31T20:08:29.433Z,4.20
2018-12-31T20:11:11.593Z,4.20
2018-12-31T20:13:53.299Z,4.20
2018-12-31T20:16:35.307Z,4.20
2018-12-31T20:19:17.483Z,4.20
2018-12-31T20:21:58.878Z,4.20
2018-12-31T20:24:40.620Z,4.30
2018-12-31T20:27:22.779Z,4.20
2018-12-31T20:30:04.905Z,4.20
2018-12-31T20:32:46.491Z,4.30
2018-12-31T20:35:28.788Z,4.30
2018-12-31T20:38:10.700Z,4.40
2018-12-31T20:40:52.959Z,4.30
2018-12-31T20:43:34.678Z,4.40
2018-12-31T20:46:16.691Z,4.50
2018-12-31T20:48:58.582Z,4.50
2018-12-31T20:51:40.827Z,4.40
2018-12-31T20:54:22.868Z,4.50
2018-12-31T20:57:05.250Z,4.50
2018-12-31T20:59:46.990Z,4.50
2018-12-31T21:02:29.074Z,4.50
2018-12-31T21:05:11.533Z,4.40
2018-12-31T21:07:53.246Z,4.40
2018-12-31T21:10:35.451Z,4.40
2018-12-31T21:13:17.600Z,4.40
2018-12-31T21:15:59.025Z,4.30
2018-12-31T21:18:41.248Z,4.40
2018-12-31T21:21:23.587Z,4.50
2018-12-31T21:24:05.353Z,4.50
2018-12-31T21:26:47.633Z,4.60
2018-12-31T21:29:29.702Z,4.60
2018-12-31T21:32:10.958Z,4.60
2018-12-31T21:34:52.384Z,4.50
2018-12-31T21:37:34.345Z,4.60
2018-12-31T21:40:15.888Z,4.60
2018-12-31T21:42:57.567Z,4.50
2018-12-31T21:45:39.819Z,4.50
2018-12-31T21:48:21.965Z,4.50
2018-12-31T21:51:04.257Z,4.40
2018-12-31T21:53:46.448Z,4.50
2018-12-31T21:56:28.511Z,4.50
2018-12-31T22:01:50.572Z,4.60
2018-12-31T22:04:32.869Z,4.60
2018-12-31T22:07:15.257Z,4.70
2018-12-31T22:09:57.321Z,4.60
2018-12-31T22:12:39.156Z,4.60
2018-12-31T22:15:21.229Z,4.70
2018-12-31T22:18:02.746Z,4.70
2018-12-31T22:20:44.019Z,4.80
2018-12-31T22:23:26.379Z,4.80
2018-12-31T22:26:08.534Z,4.80
2018-12-31T22:28:50.756Z,4.80
2018-12-31T22:31:32.059Z,4.70
2018-12-31T22:34:15.632Z,4.80
2018-12-31T22:36:57.542Z,4.80
2018-12-31T22:39:39.074Z,4.70
2018-12-31T22:42:20.962Z,4.70
2018-12-31T22:45:03.142Z,4.80
2018-12-31T22:47:45.108Z,4.80
2018-12-31T22:50:26.937Z,4.80
2018-12-31T22:53:08.900Z,4.90
2018-12-31T22:55:50.177Z,4.90
2018-12-31T22:58:32.239Z,4.90
2018-12-31T23:01:14.393Z,5.00
2018-12-31T23:03:58.156Z,5.00
2018-12-31T23:06:39.392Z,4.90
2018-12-31T23:09:21.372Z,4.90
2018-12-31T23:12:02.773Z,4.80
2018-12-31T23:14:44.474Z,4.90
2018-12-31T23:17:26.353Z,5.00
2018-12-31T23:20:07.585Z,4.90
2018-12-31T23:22:49.695Z,5.00
2018-12-31T23:25:31.419Z,4.90
2018-12-31T23:28:13.176Z,4.80
2018-12-31T23:30:55.179Z,4.80
2018-12-31T23:33:37.262Z,4.80
2018-12-31T23:36:18.652Z,4.90
2018-12-31T23:39:05.158Z,4.90
2018-12-31T23:41:44.031Z,4.90
2018-12-31T23:44:24.240Z,4.90
2018-12-31T23:47:13.325Z,4.80
2018-12-31T23:50:01.356Z,4.90
2018-12-31T23:52:43.408Z,4.90
2018-12-31T23:55:25.400Z,4.90
2018-12-31T23:58:07.360Z,4.90
